createdAt,value
2023-05-20T00:01:04.306Z,101231.72
2023-05-20T00:02:27.154Z,101234.28
2023-05-20T00:03:50.324Z,101230.31
2023-05-20T00:05:12.296Z,101230.47
2023-05-20T00:06:35.092Z,101231.59
2023-05-20T00:07:56.946Z,101237.25
2023-05-20T00:09:19.758Z,101227.28
2023-05-20T00:10:41.698Z,101223.41
2023-05-20T00:12:06.880Z,101222.66
2023-05-20T00:13:29.720Z,101220.22
2023-05-20T00:14:53.810Z,101224.03
2023-05-20T00:16:18.097Z,101218.03
2023-05-20T00:17:41.172Z,101222.22
2023-05-20T00:19:03.493Z,101227.94
2023-05-20T00:20:26.418Z,101219.72
2023-05-20T00:21:49.241Z,101205.97
2023-05-20T00:23:11.137Z,101219.28
2023-05-20T00:24:33.971Z,101223.41
2023-05-20T00:25:56.999Z,101218.16
2023-05-20T00:27:21.991Z,101222.56
2023-05-20T00:28:44.812Z,101214.06
2023-05-20T00:30:08.911Z,101212.50
2023-05-20T00:31:31.762Z,101218.25
2023-05-20T00:32:54.688Z,101218.97
2023-05-20T00:34:16.555Z,101209.09
2023-05-20T00:35:39.365Z,101209.06
2023-05-20T00:37:01.220Z,101212.34
2023-05-20T00:38:24.131Z,101207.72
2023-05-20T00:39:45.979Z,101210.47
2023-05-20T00:41:08.776Z,101210.22
2023-05-20T00:42:33.315Z,101209.13
2023-05-20T00:43:55.793Z,101206.38
2023-05-20T00:45:18.616Z,101206.63
2023-05-20T00:46:40.692Z,101203.03
2023-05-20T00:48:04.228Z,101205.16
2023-05-20T00:49:26.440Z,101197.88
2023-05-20T00:50:49.894Z,101195.56
2023-05-20T00:52:13.549Z,101209.09
2023-05-20T00:53:37.797Z,101201.72
2023-05-20T00:55:00.156Z,101207.72
2023-05-20T00:56:23.817Z,101201.13
2023-05-20T00:57:47.146Z,101194.81
2023-05-20T00:59:10.409Z,101202.78
2023-05-20T01:00:32.378Z,101197.25
2023-05-20T01:01:55.959Z,101201.16
2023-05-20T01:03:18.097Z,101203.38
2023-05-20T01:04:41.886Z,101205.00
2023-05-20T01:06:04.064Z,101210.47
2023-05-20T01:07:27.028Z,101201.69
2023-05-20T01:08:48.967Z,101205.22
2023-05-20T01:10:12.384Z,101207.13
2023-05-20T01:11:38.811Z,101198.47
2023-05-20T01:13:06.777Z,101196.28
2023-05-20T01:14:33.787Z,101195.97
2023-05-20T01:15:56.900Z,101193.81
2023-05-20T01:17:20.966Z,101188.88
2023-05-20T01:18:44.549Z,101191.38
2023-05-20T01:20:10.771Z,101187.47
2023-05-20T01:21:33.985Z,101185.84
2023-05-20T01:22:58.230Z,101184.47
2023-05-20T01:24:20.093Z,101188.59
2023-05-20T01:25:43.004Z,101191.88
2023-05-20T01:27:05.376Z,101186.97
2023-05-20T01:28:30.203Z,101189.69
2023-05-20T01:29:53.147Z,101189.41
2023-05-20T01:31:24.617Z,101188.00
2023-05-20T01:32:51.472Z,101194.22
2023-05-20T01:34:13.510Z,101187.47
2023-05-20T01:35:37.397Z,101192.97
2023-05-20T01:36:59.583Z,101192.13
2023-05-20T01:38:25.302Z,101187.72
2023-05-20T01:39:50.151Z,101182.56
2023-05-20T01:41:13.554Z,101192.16
2023-05-20T01:42:37.131Z,101179.78
2023-05-20T01:43:59.325Z,101188.84
2023-05-20T01:45:24.415Z,101193.75
2023-05-20T01:46:50.280Z,101194.28
2023-05-20T01:48:13.586Z,101191.50
2023-05-20T01:49:36.367Z,101187.13
2023-05-20T01:50:58.253Z,101199.06
2023-05-20T01:52:21.145Z,101194.47
2023-05-20T01:53:45.323Z,101192.47
2023-05-20T01:55:07.907Z,101195.09
2023-05-20T01:56:31.655Z,101196.75
2023-05-20T01:57:54.529Z,101198.41
2023-05-20T01:59:16.575Z,101197.66
2023-05-20T02:00:39.521Z,101195.09
2023-05-20T02:02:01.643Z,101200.13
2023-05-20T02:03:24.538Z,101197.53
2023-05-20T02:04:48.065Z,101184.41
2023-05-20T02:06:10.970Z,101199.56
2023-05-20T02:07:33.768Z,101196.81
2023-05-20T02:08:58.013Z,101189.69
2023-05-20T02:10:20.861Z,101192.16
2023-05-20T02:11:42.743Z,101194.00
2023-05-20T02:13:05.580Z,101190.38
2023-05-20T02:14:27.409Z,101198.91
2023-05-20T02:15:50.201Z,101193.44
2023-05-20T02:17:14.536Z,101197.28
2023-05-20T02:18:37.324Z,101200.00
2023-05-20T02:19:59.229Z,101192.22
2023-05-20T02:21:22.279Z,101198.13
2023-05-20T02:22:44.190Z,101188.47
2023-05-20T02:24:08.907Z,101194.00
2023-05-20T02:25:31.803Z,101190.47
2023-05-20T02:26:55.661Z,101192.91
2023-05-20T02:28:18.518Z,101186.25
2023-05-20T02:29:40.829Z,101189.81
2023-05-20T02:31:03.596Z,101184.41
2023-05-20T02:32:28.081Z,101191.31
2023-05-20T02:33:50.945Z,101195.16
2023-05-20T02:35:13.754Z,101190.72
2023-05-20T02:36:36.330Z,101187.34
2023-05-20T02:37:59.252Z,101186.25
2023-05-20T02:39:22.936Z,101179.81
2023-05-20T02:40:45.868Z,101178.47
2023-05-20T02:42:07.700Z,101186.03
2023-05-20T02:43:30.492Z,101184.97
2023-05-20T02:44:56.479Z,101175.91
2023-05-20T02:46:19.867Z,101181.81
2023-05-20T02:47:42.780Z,101176.72
2023-05-20T02:49:04.661Z,101175.72
2023-05-20T02:50:27.448Z,101180.81
2023-05-20T02:51:49.273Z,101174.81
2023-05-20T02:53:12.146Z,101176.00
2023-05-20T02:54:35.517Z,101180.81
2023-05-20T02:55:58.762Z,101183.31
2023-05-20T02:57:20.689Z,101194.84
2023-05-20T02:58:43.524Z,101190.34
2023-05-20T03:00:07.315Z,101192.22
2023-05-20T03:01:30.156Z,101196.28
2023-05-20T03:02:52.173Z,101194.47
2023-05-20T03:04:15.149Z,101192.66
2023-05-20T03:05:38.394Z,101192.31
2023-05-20T03:07:00.291Z,101189.47
2023-05-20T03:08:24.219Z,101192.59
2023-05-20T03:09:47.546Z,101192.34
2023-05-20T03:11:10.544Z,101187.91
2023-05-20T03:12:32.807Z,101193.75
2023-05-20T03:13:55.897Z,101192.72
2023-05-20T03:15:17.961Z,101193.88
2023-05-20T03:16:41.298Z,101188.25
2023-05-20T03:18:03.678Z,101189.00
2023-05-20T03:19:26.646Z,101183.19
2023-05-20T03:20:48.630Z,101187.19
2023-05-20T03:22:11.646Z,101183.34
2023-05-20T03:23:34.451Z,101187.31
2023-05-20T03:24:58.391Z,101191.00
2023-05-20T03:26:21.775Z,101186.91
2023-05-20T03:27:45.256Z,101182.28
2023-05-20T03:29:08.086Z,101176.25
2023-05-20T03:30:30.108Z,101178.03
2023-05-20T03:31:52.941Z,101181.34
2023-05-20T03:33:15.999Z,101179.59
2023-05-20T03:34:38.448Z,101181.91
2023-05-20T03:36:01.530Z,101178.94
2023-05-20T03:37:24.337Z,101180.59
2023-05-20T03:38:47.329Z,101172.84
2023-05-20T03:40:11.657Z,101172.63
2023-05-20T03:41:34.672Z,101173.09
2023-05-20T03:42:56.570Z,101168.06
2023-05-20T03:44:19.991Z,101174.31
2023-05-20T03:45:42.858Z,101169.81
2023-05-20T03:47:05.162Z,101175.56
2023-05-20T03:48:28.147Z,101169.16
2023-05-20T03:49:50.048Z,101175.03
2023-05-20T03:51:12.931Z,101174.09
2023-05-20T03:52:34.859Z,101171.28
2023-05-20T03:53:57.878Z,101168.31
2023-05-20T03:55:21.115Z,101170.78
2023-05-20T03:56:44.108Z,101164.72
2023-05-20T03:58:07.019Z,101169.84
2023-05-20T03:59:28.976Z,101174.88
2023-05-20T04:00:51.839Z,101168.00
2023-05-20T04:02:13.742Z,101159.50
2023-05-20T04:03:36.676Z,101166.38
2023-05-20T04:05:01.310Z,101170.56
2023-05-20T04:06:24.117Z,101170.56
2023-05-20T04:07:46.979Z,101166.97
2023-05-20T04:09:09.901Z,101167.75
2023-05-20T04:10:34.320Z,101163.34
2023-05-20T04:11:57.031Z,101163.38
2023-05-20T04:13:19.908Z,101174.09
2023-05-20T04:14:43.103Z,101167.50
2023-05-20T04:16:05.989Z,101176.06
2023-05-20T04:17:30.017Z,101173.59
2023-05-20T04:18:53.494Z,101171.59
2023-05-20T04:20:15.646Z,101177.63
2023-05-20T04:21:38.526Z,101179.25
2023-05-20T04:23:00.538Z,101175.16
2023-05-20T04:24:25.551Z,101182.00
2023-05-20T04:25:49.952Z,101181.44
2023-05-20T04:27:11.848Z,101177.56
2023-05-20T04:28:37.671Z,101177.81
2023-05-20T04:30:02.302Z,101170.94
2023-05-20T04:31:26.841Z,101168.09
2023-05-20T04:32:50.957Z,101171.28
2023-05-20T04:34:13.874Z,101173.78
2023-05-20T04:35:37.747Z,101177.41
2023-05-20T04:37:00.635Z,101177.16
2023-05-20T04:38:23.310Z,101193.00
2023-05-20T04:39:48.279Z,101181.78
2023-05-20T04:41:11.673Z,101195.78
2023-05-20T04:42:34.666Z,101193.84
2023-05-20T04:44:00.557Z,101197.41
2023-05-20T04:45:23.966Z,101213.28
2023-05-20T04:46:47.142Z,101205.63
2023-05-20T04:48:09.586Z,101206.69
2023-05-20T04:49:32.559Z,101211.63
2023-05-20T04:50:55.407Z,101210.53
2023-05-20T04:52:19.074Z,101202.03
2023-05-20T04:53:43.582Z,101205.06
2023-05-20T04:55:09.794Z,101212.19
2023-05-20T04:56:34.051Z,101206.19
2023-05-20T04:57:56.855Z,101206.16
2023-05-20T04:59:19.684Z,101207.25
2023-05-20T05:00:43.009Z,101210.81
2023-05-20T05:02:04.861Z,101207.81
2023-05-20T05:03:27.757Z,101206.16
2023-05-20T05:04:49.735Z,101201.25
2023-05-20T05:06:12.632Z,101203.13
2023-05-20T05:07:34.488Z,101195.22
2023-05-20T05:08:57.364Z,101197.41
2023-05-20T05:10:19.404Z,101192.75
2023-05-20T05:11:43.585Z,101196.88
2023-05-20T05:13:06.490Z,101194.69
2023-05-20T05:14:29.366Z,101192.75
2023-05-20T05:15:59.008Z,101190.28
2023-05-20T05:17:21.855Z,101194.94
2023-05-20T05:18:43.770Z,101199.03
2023-05-20T05:20:08.609Z,101188.03
2023-05-20T05:21:31.503Z,101181.13
2023-05-20T05:22:54.335Z,101189.72
2023-05-20T05:24:17.187Z,101185.88
2023-05-20T05:25:40.017Z,101179.53
2023-05-20T05:27:04.493Z,101184.31
2023-05-20T05:28:27.415Z,101187.03
2023-05-20T05:29:50.266Z,101180.25
2023-05-20T05:31:13.081Z,101177.13
2023-05-20T05:32:35.778Z,101182.78
2023-05-20T05:33:58.702Z,101184.91
2023-05-20T05:35:20.695Z,101185.66
2023-05-20T05:36:43.552Z,101176.47
2023-05-20T05:38:06.381Z,101177.09
2023-05-20T05:39:29.225Z,101177.63
2023-05-20T05:40:52.062Z,101180.41
2023-05-20T05:42:16.329Z,101180.94
2023-05-20T05:43:39.234Z,101179.34
2023-05-20T05:45:02.123Z,101173.31
2023-05-20T05:46:24.976Z,101170.03
2023-05-20T05:47:47.918Z,101176.59
2023-05-20T05:49:10.897Z,101165.31
2023-05-20T05:50:33.790Z,101163.94
2023-05-20T05:51:55.716Z,101168.50
2023-05-20T05:53:18.668Z,101172.88
2023-05-20T05:54:40.600Z,101185.81
2023-05-20T05:56:03.419Z,101181.72
2023-05-20T05:57:27.585Z,101183.09
2023-05-20T05:58:49.490Z,101178.75
2023-05-20T06:00:13.366Z,101177.06
2023-05-20T06:01:37.365Z,101181.22
2023-05-20T06:02:59.404Z,101177.38
2023-05-20T06:04:22.298Z,101164.47
2023-05-20T06:05:45.494Z,101159.25
2023-05-20T06:07:08.369Z,101165.22
2023-05-20T06:08:31.211Z,101170.13
2023-05-20T06:09:53.163Z,101174.28
2023-05-20T06:11:16.339Z,101175.94
2023-05-20T06:12:40.518Z,101177.06
2023-05-20T06:14:04.568Z,101179.78
2023-05-20T06:15:26.440Z,101174.56
2023-05-20T06:16:49.326Z,101171.81
2023-05-20T06:18:12.243Z,101182.00
2023-05-20T06:19:34.218Z,101176.75
2023-05-20T06:20:57.796Z,101178.66
2023-05-20T06:22:19.856Z,101173.97
2023-05-20T06:23:42.697Z,101162.75
2023-05-20T06:25:06.400Z,101166.63
2023-05-20T06:26:29.214Z,101172.66
2023-05-20T06:27:53.346Z,101185.25
2023-05-20T06:29:15.363Z,101174.56
2023-05-20T06:30:38.564Z,101176.41
2023-05-20T06:32:01.465Z,101177.53
2023-05-20T06:33:26.043Z,101179.69
2023-05-20T06:34:48.924Z,101175.25
2023-05-20T06:36:11.752Z,101174.25
2023-05-20T06:37:34.707Z,101182.25
2023-05-20T06:38:56.641Z,101181.69
2023-05-20T06:40:19.549Z,101184.59
2023-05-20T06:41:42.442Z,101170.94
2023-05-20T06:43:06.659Z,101174.78
2023-05-20T06:44:29.471Z,101173.66
2023-05-20T06:45:52.339Z,101173.91
2023-05-20T06:47:15.852Z,101173.03
2023-05-20T06:48:38.672Z,101159.66
2023-05-20T06:50:00.587Z,101159.97
2023-05-20T06:51:23.461Z,101163.22
2023-05-20T06:52:46.346Z,101154.94
2023-05-20T06:54:08.210Z,101156.00
2023-05-20T06:55:31.265Z,101146.44
2023-05-20T06:56:54.115Z,101146.13
2023-05-20T06:58:17.377Z,101154.34
2023-05-20T06:59:40.299Z,101159.50
2023-05-20T07:01:03.105Z,101157.63
2023-05-20T07:02:25.425Z,101165.25
2023-05-20T07:03:48.350Z,101160.94
2023-05-20T07:05:11.780Z,101166.41
2023-05-20T07:06:34.911Z,101156.66
2023-05-20T07:07:57.955Z,101164.41
2023-05-20T07:09:20.878Z,101168.78
2023-05-20T07:10:43.772Z,101166.06
2023-05-20T07:12:07.323Z,101164.16
2023-05-20T07:13:31.681Z,101161.09
2023-05-20T07:14:54.489Z,101158.25
2023-05-20T07:16:17.333Z,101153.28
2023-05-20T07:17:40.321Z,101153.63
2023-05-20T07:19:02.356Z,101154.41
2023-05-20T07:20:25.305Z,101158.69
2023-05-20T07:21:49.740Z,101150.84
2023-05-20T07:23:13.932Z,101152.50
2023-05-20T07:24:38.782Z,101149.50
2023-05-20T07:26:01.689Z,101157.72
2023-05-20T07:27:24.646Z,101153.00
2023-05-20T07:28:48.872Z,101152.47
2023-05-20T07:30:11.995Z,101150.56
2023-05-20T07:31:34.831Z,101148.66
2023-05-20T07:32:56.826Z,101153.41
2023-05-20T07:34:19.707Z,101144.97
2023-05-20T07:35:42.563Z,101139.34
2023-05-20T07:37:06.116Z,101130.19
2023-05-20T07:38:28.150Z,101135.13
2023-05-20T07:39:51.027Z,101134.34
2023-05-20T07:41:13.842Z,101146.78
2023-05-20T07:42:36.694Z,101134.47
2023-05-20T07:44:03.041Z,101135.22
2023-05-20T07:45:25.860Z,101128.97
2023-05-20T07:46:49.182Z,101128.94
2023-05-20T07:48:12.996Z,101122.97
2023-05-20T07:49:36.023Z,101136.41
2023-05-20T07:50:59.257Z,101142.53
2023-05-20T07:52:22.415Z,101131.97
2023-05-20T07:53:45.433Z,101119.84
2023-05-20T07:55:08.099Z,101121.75
2023-05-20T07:56:31.118Z,101134.41
2023-05-20T07:57:53.020Z,101137.94
2023-05-20T07:59:17.221Z,101131.91
2023-05-20T08:00:39.069Z,101129.28
2023-05-20T08:02:01.999Z,101129.53
2023-05-20T08:03:25.013Z,101132.47
2023-05-20T08:04:47.911Z,101130.06
2023-05-20T08:06:09.786Z,101130.28
2023-05-20T08:07:32.630Z,101129.44
2023-05-20T08:08:54.496Z,101126.00
2023-05-20T08:10:17.322Z,101141.00
2023-05-20T08:11:40.169Z,101125.63
2023-05-20T08:13:02.155Z,101119.88
2023-05-20T08:14:26.609Z,101121.75
2023-05-20T08:15:49.574Z,101120.44
2023-05-20T08:17:12.571Z,101109.44
2023-05-20T08:18:36.546Z,101113.00
2023-05-20T08:19:59.372Z,101103.38
2023-05-20T08:21:21.720Z,101105.59
2023-05-20T08:22:44.578Z,101109.22
2023-05-20T08:24:07.993Z,101117.94
2023-05-20T08:25:31.205Z,101097.25
2023-05-20T08:26:54.270Z,101105.69
2023-05-20T08:28:17.943Z,101104.72
2023-05-20T08:29:42.072Z,101115.75
2023-05-20T08:31:05.143Z,101107.47
2023-05-20T08:32:27.206Z,101105.22
2023-05-20T08:33:50.115Z,101104.47
2023-05-20T08:35:12.963Z,101098.50
2023-05-20T08:36:35.925Z,101099.38
2023-05-20T08:37:58.901Z,101104.16
2023-05-20T08:39:21.755Z,101102.53
2023-05-20T08:40:44.727Z,101100.94
2023-05-20T08:42:07.935Z,101102.41
2023-05-20T08:43:32.433Z,101100.19
2023-05-20T08:44:57.025Z,101097.94
2023-05-20T08:46:22.784Z,101109.44
2023-05-20T08:47:46.114Z,101109.19
2023-05-20T08:49:09.111Z,101096.78
2023-05-20T08:50:32.864Z,101090.72
2023-05-20T08:51:56.082Z,101098.50
2023-05-20T08:53:19.263Z,101098.31
2023-05-20T08:54:44.942Z,101108.53
2023-05-20T08:56:10.593Z,101104.63
2023-05-20T08:57:34.016Z,101104.28
2023-05-20T08:58:57.152Z,101106.03
2023-05-20T09:00:23.558Z,101096.94
2023-05-20T09:01:46.580Z,101101.06
2023-05-20T09:03:10.105Z,101092.91
2023-05-20T09:04:32.098Z,101103.69
2023-05-20T09:05:55.398Z,101104.22
2023-05-20T09:07:27.901Z,101102.91
2023-05-20T09:08:51.811Z,101103.78
2023-05-20T09:10:14.914Z,101086.84
2023-05-20T09:11:37.786Z,101090.16
2023-05-20T09:13:01.446Z,101087.63
2023-05-20T09:14:27.131Z,101081.91
2023-05-20T09:15:51.598Z,101080.38
2023-05-20T09:17:14.081Z,101081.09
2023-05-20T09:18:40.082Z,101078.13
2023-05-20T09:20:04.151Z,101080.69
2023-05-20T09:21:27.820Z,101074.88
2023-05-20T09:22:52.533Z,101072.34
2023-05-20T09:24:15.665Z,101073.94
2023-05-20T09:25:38.827Z,101069.69
2023-05-20T09:27:01.055Z,101067.47
2023-05-20T09:28:25.341Z,101069.88
2023-05-20T09:29:49.512Z,101058.84
2023-05-20T09:31:15.228Z,101058.13
2023-05-20T09:32:38.418Z,101055.28
2023-05-20T09:34:01.979Z,101063.25
2023-05-20T09:35:24.962Z,101065.38
2023-05-20T09:36:51.967Z,101063.91
2023-05-20T09:38:16.499Z,101059.13
2023-05-20T09:39:48.465Z,101060.50
2023-05-20T09:41:13.348Z,101045.97
2023-05-20T09:42:41.547Z,101056.53
2023-05-20T09:44:06.625Z,101057.81
2023-05-20T09:45:29.811Z,101055.06
2023-05-20T09:46:55.223Z,101054.34
2023-05-20T09:48:18.557Z,101060.56
2023-05-20T09:49:43.363Z,101053.44
2023-05-20T09:51:07.255Z,101058.66
2023-05-20T09:52:31.016Z,101056.31
2023-05-20T09:53:54.759Z,101056.13
2023-05-20T09:55:17.702Z,101053.22
2023-05-20T09:56:42.731Z,101059.06
2023-05-20T09:58:05.562Z,101045.97
2023-05-20T09:59:27.699Z,101043.03
2023-05-20T10:00:51.186Z,101037.06
2023-05-20T10:02:14.754Z,101041.47
2023-05-20T10:03:38.239Z,101034.28
2023-05-20T10:05:05.856Z,101027.75
2023-05-20T10:06:47.602Z,101029.63
2023-05-20T10:08:43.754Z,101022.56
2023-05-20T10:10:20.869Z,101026.75
2023-05-20T10:11:49.818Z,101019.59
2023-05-20T10:13:26.526Z,101013.03
2023-05-20T10:15:02.264Z,101011.91
2023-05-20T10:16:33.064Z,101014.31
2023-05-20T10:18:07.147Z,101011.00
2023-05-20T10:19:31.701Z,101010.75
2023-05-20T10:20:53.697Z,101003.59
2023-05-20T10:22:16.552Z,101002.41
2023-05-20T10:23:39.505Z,101011.25
2023-05-20T10:25:07.723Z,101003.34
2023-05-20T10:26:36.040Z,101008.56
2023-05-20T10:28:07.955Z,101010.47
2023-05-20T10:29:31.334Z,101009.91
2023-05-20T10:30:53.255Z,101007.78
2023-05-20T10:32:25.778Z,101015.13
2023-05-20T10:33:53.204Z,101003.84
2023-05-20T10:35:23.011Z,100993.34
2023-05-20T10:36:59.185Z,100998.97
2023-05-20T10:38:22.275Z,100986.31
2023-05-20T10:39:44.156Z,100998.66
2023-05-20T10:41:11.309Z,101001.72
2023-05-20T10:42:34.194Z,100998.31
2023-05-20T10:44:04.468Z,101000.59
2023-05-20T10:45:27.775Z,101003.22
2023-05-20T10:47:23.707Z,100993.16
2023-05-20T10:48:46.149Z,100995.19
2023-05-20T10:50:27.602Z,100991.53
2023-05-20T10:51:51.649Z,100988.50
2023-05-20T10:53:25.638Z,100977.41
2023-05-20T10:54:57.384Z,100985.50
2023-05-20T10:56:22.625Z,100980.41
2023-05-20T10:57:47.122Z,100984.47
2023-05-20T10:59:10.085Z,100976.66
2023-05-20T11:00:32.118Z,100973.41
2023-05-20T11:01:55.553Z,100973.09
2023-05-20T11:03:20.320Z,100964.47
2023-05-20T11:04:44.610Z,100971.09
2023-05-20T11:06:14.895Z,100962.19
2023-05-20T11:07:38.977Z,100973.88
2023-05-20T11:09:27.475Z,100960.38
2023-05-20T11:10:50.523Z,100966.56
2023-05-20T11:12:12.490Z,100962.91
2023-05-20T11:13:35.536Z,100967.34
2023-05-20T11:14:57.505Z,100960.03
2023-05-20T11:16:22.492Z,100958.09
2023-05-20T11:17:54.166Z,100965.31
2023-05-20T11:19:18.838Z,100953.00
2023-05-20T11:20:42.402Z,100953.97
2023-05-20T11:22:08.409Z,100951.31
2023-05-20T11:23:31.823Z,100956.47
2023-05-20T11:24:54.663Z,100957.09
2023-05-20T11:26:16.691Z,100950.84
2023-05-20T11:27:40.536Z,100943.25
2023-05-20T11:29:03.510Z,100949.34
2023-05-20T11:30:26.705Z,100942.69
2023-05-20T11:31:52.034Z,100941.03
2023-05-20T11:33:16.796Z,100939.22
2023-05-20T11:34:40.822Z,100931.00
2023-05-20T11:36:08.615Z,100931.56
2023-05-20T11:37:38.433Z,100920.72
2023-05-20T11:39:01.514Z,100915.63
2023-05-20T11:40:32.893Z,100915.91
2023-05-20T11:42:02.094Z,100902.69
2023-05-20T11:43:25.628Z,100910.28
2023-05-20T11:44:48.844Z,100924.84
2023-05-20T11:46:11.898Z,100909.41
2023-05-20T11:47:34.787Z,100916.47
2023-05-20T11:48:58.551Z,100913.28
2023-05-20T11:50:21.507Z,100916.13
2023-05-20T11:51:45.004Z,100917.16
2023-05-20T11:53:10.090Z,100913.97
2023-05-20T11:54:36.722Z,100903.13
2023-05-20T11:56:01.178Z,100909.16
2023-05-20T11:57:23.399Z,100901.78
2023-05-20T11:58:46.325Z,100905.19
2023-05-20T12:00:10.878Z,100901.88
2023-05-20T12:01:40.981Z,100911.38
2023-05-20T12:03:03.978Z,100901.66
2023-05-20T12:04:26.030Z,100898.41
2023-05-20T12:05:50.733Z,100900.91
2023-05-20T12:07:15.698Z,100898.44
2023-05-20T12:08:39.910Z,100898.50
2023-05-20T12:10:01.863Z,100900.31
2023-05-20T12:11:24.757Z,100907.22
2023-05-20T12:12:46.694Z,100900.84
2023-05-20T12:14:10.104Z,100898.03
2023-05-20T12:15:32.950Z,100893.47
2023-05-20T12:16:55.812Z,100898.84
2023-05-20T12:18:18.755Z,100888.91
2023-05-20T12:19:42.140Z,100891.88
2023-05-20T12:21:05.150Z,100898.84
2023-05-20T12:22:26.995Z,100890.84
2023-05-20T12:23:57.402Z,100884.50
2023-05-20T12:25:21.586Z,100887.19
2023-05-20T12:26:44.457Z,100892.28
2023-05-20T12:28:08.122Z,100882.09
2023-05-20T12:29:30.924Z,100881.09
2023-05-20T12:30:53.821Z,100883.31
2023-05-20T12:32:16.255Z,100883.31
2023-05-20T12:33:39.118Z,100878.38
2023-05-20T12:35:01.360Z,100874.31
2023-05-20T12:36:24.251Z,100879.78
2023-05-20T12:37:47.178Z,100872.53
2023-05-20T12:39:11.097Z,100881.06
2023-05-20T12:40:34.236Z,100869.75
2023-05-20T12:41:57.204Z,100871.25
2023-05-20T12:43:20.075Z,100861.47
2023-05-20T12:44:42.929Z,100870.72
2023-05-20T12:46:06.346Z,100865.59
2023-05-20T12:47:29.301Z,100865.34
2023-05-20T12:48:52.338Z,100869.13
2023-05-20T12:50:14.296Z,100874.69
2023-05-20T12:51:37.106Z,100868.66
2023-05-20T12:52:59.956Z,100862.09
2023-05-20T12:54:23.321Z,100850.19
2023-05-20T12:55:46.213Z,100853.50
2023-05-20T12:57:08.177Z,100852.22
2023-05-20T12:58:30.987Z,100847.63
2023-05-20T12:59:54.130Z,100850.25
2023-05-20T13:01:17.031Z,100846.03
2023-05-20T13:02:40.261Z,100839.94
2023-05-20T13:04:03.541Z,100844.91
2023-05-20T13:05:26.534Z,100842.97
2023-05-20T13:06:49.441Z,100849.06
2023-05-20T13:08:12.877Z,100839.94
2023-05-20T13:09:37.066Z,100846.44
2023-05-20T13:10:58.983Z,100839.66
2023-05-20T13:12:21.852Z,100842.41
2023-05-20T13:13:45.253Z,100833.66
2023-05-20T13:15:09.228Z,100825.75
2023-05-20T13:16:32.228Z,100821.56
2023-05-20T13:17:55.251Z,100826.78
2023-05-20T13:19:17.197Z,100830.56
2023-05-20T13:20:40.505Z,100838.50
2023-05-20T13:22:02.453Z,100827.81
2023-05-20T13:23:25.311Z,100823.84
2023-05-20T13:24:48.599Z,100825.50
2023-05-20T13:26:11.723Z,100830.09
2023-05-20T13:27:34.534Z,100828.25
2023-05-20T13:28:57.414Z,100815.28
2023-05-20T13:30:20.315Z,100818.25
2023-05-20T13:31:43.618Z,100823.06
2023-05-20T13:33:06.584Z,100825.66
2023-05-20T13:34:29.928Z,100826.13
2023-05-20T13:35:52.790Z,100822.38
2023-05-20T13:37:14.657Z,100819.69
2023-05-20T13:38:37.810Z,100810.97
2023-05-20T13:40:02.054Z,100801.03
2023-05-20T13:41:26.437Z,100801.19
2023-05-20T13:42:49.289Z,100791.44
2023-05-20T13:44:12.224Z,100797.81
2023-05-20T13:45:34.101Z,100797.06
2023-05-20T13:46:57.377Z,100797.00
2023-05-20T13:48:19.270Z,100796.31
2023-05-20T13:49:42.068Z,100786.22
2023-05-20T13:51:04.189Z,100792.03
2023-05-20T13:52:27.028Z,100784.41
2023-05-20T13:53:49.842Z,100774.19
2023-05-20T13:55:13.184Z,100781.41
2023-05-20T13:56:36.086Z,100784.84
2023-05-20T13:57:57.932Z,100784.28
2023-05-20T13:59:21.148Z,100782.41
2023-05-20T14:00:43.193Z,100781.91
2023-05-20T14:02:06.506Z,100786.31
2023-05-20T14:03:29.436Z,100788.97
2023-05-20T14:04:52.301Z,100779.09
2023-05-20T14:06:18.683Z,100779.00
2023-05-20T14:07:41.578Z,100782.31
2023-05-20T14:09:04.510Z,100776.78
2023-05-20T14:10:29.029Z,100764.75
2023-05-20T14:11:52.037Z,100764.38
2023-05-20T14:13:15.165Z,100769.31
2023-05-20T14:14:38.025Z,100761.88
2023-05-20T14:16:00.941Z,100767.31
2023-05-20T14:17:23.895Z,100769.22
2023-05-20T14:18:46.891Z,100756.72
2023-05-20T14:20:10.777Z,100755.00
2023-05-20T14:21:33.946Z,100748.78
2023-05-20T14:22:56.841Z,100738.31
2023-05-20T14:24:21.400Z,100740.28
2023-05-20T14:25:47.085Z,100735.53
2023-05-20T14:27:11.443Z,100734.66
2023-05-20T14:28:34.422Z,100734.06
2023-05-20T14:29:57.300Z,100745.53
2023-05-20T14:31:20.629Z,100728.28
2023-05-20T14:32:43.644Z,100730.50
2023-05-20T14:34:06.540Z,100719.09
2023-05-20T14:35:29.369Z,100730.41
2023-05-20T14:36:52.270Z,100727.66
2023-05-20T14:38:15.613Z,100717.34
2023-05-20T14:39:38.484Z,100709.22
2023-05-20T14:41:02.657Z,100731.03
2023-05-20T14:42:25.678Z,100726.50
2023-05-20T14:43:48.530Z,100731.69
2023-05-20T14:45:12.025Z,100726.03
2023-05-20T14:46:34.940Z,100716.78
2023-05-20T14:47:57.860Z,100715.59
2023-05-20T14:49:20.810Z,100726.25
2023-05-20T14:50:43.623Z,100719.78
2023-05-20T14:52:07.648Z,100719.56
2023-05-20T14:53:30.451Z,100717.81
2023-05-20T14:54:53.368Z,100711.34
2023-05-20T14:56:17.665Z,100719.03
2023-05-20T14:57:40.543Z,100704.31
2023-05-20T14:59:03.365Z,100718.81
2023-05-20T15:00:26.207Z,100711.03
2023-05-20T15:01:49.214Z,100715.69
2023-05-20T15:03:12.443Z,100711.28
2023-05-20T15:04:35.552Z,100712.34
2023-05-20T15:05:58.610Z,100707.78
2023-05-20T15:07:21.407Z,100716.13
2023-05-20T15:08:44.214Z,100723.91
2023-05-20T15:10:08.023Z,100715.78
2023-05-20T15:11:32.569Z,100714.66
2023-05-20T15:12:55.485Z,100712.91
2023-05-20T15:14:17.394Z,100713.38
2023-05-20T15:15:40.269Z,100705.09
2023-05-20T15:17:04.099Z,100700.81
2023-05-20T15:18:27.030Z,100702.13
2023-05-20T15:19:49.846Z,100691.97
2023-05-20T15:21:12.709Z,100696.09
2023-05-20T15:22:35.515Z,100692.16
2023-05-20T15:23:58.399Z,100698.28
2023-05-20T15:25:21.308Z,100698.19
2023-05-20T15:26:45.981Z,100700.97
2023-05-20T15:28:08.864Z,100702.47
2023-05-20T15:29:31.738Z,100691.97
2023-05-20T15:30:56.455Z,100691.78
2023-05-20T15:32:20.034Z,100691.72
2023-05-20T15:33:43.103Z,100690.50
2023-05-20T15:35:07.399Z,100689.13
2023-05-20T15:36:31.707Z,100689.84
2023-05-20T15:37:54.600Z,100689.13
2023-05-20T15:39:17.450Z,100681.41
2023-05-20T15:40:40.369Z,100680.53
2023-05-20T15:42:05.432Z,100685.06
2023-05-20T15:43:28.254Z,100677.72
2023-05-20T15:44:51.188Z,100686.06
2023-05-20T15:46:13.108Z,100664.13
2023-05-20T15:47:36.440Z,100675.16
2023-05-20T15:49:00.448Z,100671.13
2023-05-20T15:50:23.819Z,100665.88
2023-05-20T15:51:52.312Z,100669.94
2023-05-20T15:53:22.210Z,100676.72
2023-05-20T15:54:45.036Z,100666.50
2023-05-20T15:56:09.044Z,100680.19